Time;durP1;ratioP1;P1;durP2;ratioP2;P2;SDS_P1;SDS_P2;PMS_P1;PMS_P2;Temp;Humidity;BMP_temperature;BMP_pressure;BME280_temperature;BME280_humidity;BME280_pressure;Samples;Min_cycle;Max_cycle;Signal;HPM_P1;HPM_P2
2023/12/19 00:02:30;;;;;;;13.00;7.13;;;;;;;3.94;74.26;101707.50;4964709;28;20091;-71
2023/12/19 00:05:14;;;;;;;14.05;7.35;;;;;;;3.85;74.41;101711.47;4977508;28;20055;-71
2023/12/19 00:07:41;;;;;;;17.23;8.40;;;;;;;4.11;74.28;101713.81;4978181;28;20039;-71
2023/12/19 00:10:08;;;;;;;13.30;7.15;;;;;;;4.32;72.23;101700.38;4977551;28;20046;-71
2023/12/19 00:12:37;;;;;;;11.68;6.18;;;;;;;4.21;72.85;101690.16;4977934;28;20032;-71
2023/12/19 00:15:07;;;;;;;11.15;6.05;;;;;;;4.30;72.49;101681.63;4976950;28;20063;-71
2023/12/19 00:17:34;;;;;;;13.57;6.93;;;;;;;4.11;73.04;101670.00;4977765;28;20062;-72
2023/12/19 00:20:01;;;;;;;12.00;5.82;;;;;;;4.30;72.51;101670.00;4976375;28;20039;-71
2023/12/19 00:22:28;;;;;;;13.18;5.88;;;;;;;4.21;72.15;101657.91;4982569;28;20030;-71
2023/12/19 00:24:54;;;;;;;10.98;6.55;;;;;;;4.27;72.08;101654.94;4996533;28;20046;-71
2023/12/19 00:27:21;;;;;;;12.95;6.47;;;;;;;4.12;72.18;101664.59;4995997;28;20077;-72
2023/12/19 00:29:48;;;;;;;9.32;5.70;;;;;;;4.18;71.62;101666.09;4997475;28;20090;-71
2023/12/19 00:32:15;;;;;;;10.07;6.07;;;;;;;4.41;71.06;101675.78;4997808;28;20062;-71
2023/12/19 00:34:41;;;;;;;11.20;6.20;;;;;;;4.57;70.50;101681.28;4997688;28;20034;-72
2023/12/19 00:37:08;;;;;;;9.85;5.63;;;;;;;4.38;70.42;101678.59;4996760;28;20105;-73
2023/12/19 00:39:36;;;;;;;11.43;5.88;;;;;;;4.27;71.26;101691.66;4996969;28;20099;-72
2023/12/19 00:42:04;;;;;;;11.00;5.28;;;;;;;4.41;70.71;101702.63;4994806;28;20051;-71
2023/12/19 00:44:31;;;;;;;12.80;5.50;;;;;;;4.50;70.76;101695.97;4995143;28;20042;-71
2023/12/19 00:46:57;;;;;;;11.57;6.13;;;;;;;4.42;70.31;101685.56;4994786;28;20070;-71
2023/12/19 00:49:27;;;;;;;11.70;6.00;;;;;;;4.38;71.02;101692.88;4996292;28;20042;-71
2023/12/19 00:51:53;;;;;;;10.93;5.82;;;;;;;4.55;70.91;101693.91;4995777;28;20043;-70
2023/12/19 00:54:21;;;;;;;12.75;5.78;;;;;;;4.81;69.52;101708.78;4995409;28;20062;-70
2023/12/19 00:56:48;;;;;;;10.18;5.80;;;;;;;4.70;70.15;101728.13;4995117;28;20026;-70
2023/12/19 00:59:15;;;;;;;10.10;5.18;;;;;;;4.85;69.34;101721.13;4995964;28;20038;-71
2023/12/19 01:01:42;;;;;;;9.65;5.45;;;;;;;4.88;68.48;101710.25;4997255;28;20109;-70
2023/12/19 01:04:09;;;;;;;13.52;5.68;;;;;;;4.81;68.63;101700.72;4979221;28;20153;-70
2023/12/19 01:06:36;;;;;;;11.30;6.03;;;;;;;4.92;68.43;101698.41;4996798;28;20066;-70
2023/12/19 01:09:04;;;;;;;7.28;4.75;;;;;;;4.77;68.18;101686.59;4994462;28;20043;-71
2023/12/19 01:11:30;;;;;;;8.60;4.93;;;;;;;4.53;69.65;101691.31;4995580;28;20069;-69
2023/12/19 01:13:57;;;;;;;9.93;5.15;;;;;;;4.69;68.73;101686.94;4994981;28;20031;-71
2023/12/19 01:16:24;;;;;;;10.05;4.88;;;;;;;4.77;68.77;101696.44;4994531;28;20074;-70
2023/12/19 01:18:50;;;;;;;9.88;5.22;;;;;;;4.82;68.50;101691.72;4994131;28;20046;-70
2023/12/19 01:21:17;;;;;;;10.57;5.22;;;;;;;5.10;67.61;101700.19;4977943;28;20066;-70
2023/12/19 01:23:43;;;;;;;9.25;4.82;;;;;;;5.00;67.49;101707.84;4995779;28;20031;-70
2023/12/19 01:26:10;;;;;;;7.72;4.80;;;;;;;5.03;67.26;101704.13;4995771;28;20038;-70
2023/12/19 01:28:45;;;;;;;12.15;4.90;;;;;;;5.06;67.84;101704.00;4995385;28;20031;-70
2023/12/19 01:31:12;;;;;;;9.20;5.38;;;;;;;5.09;67.23;101698.47;4995637;28;20039;-70
2023/12/19 01:33:39;;;;;;;9.25;5.13;;;;;;;4.91;67.46;101694.00;4995204;28;20063;-71
2023/12/19 01:36:06;;;;;;;11.55;5.30;;;;;;;4.80;67.57;101689.13;4995916;28;20062;-72
2023/12/19 01:38:32;;;;;;;10.20;4.90;;;;;;;4.94;67.15;101694.69;4994804;28;20078;-70
2023/12/19 01:40:59;;;;;;;9.10;4.60;;;;;;;5.05;67.45;101694.19;4994739;28;20035;-70
2023/12/19 01:43:25;;;;;;;10.40;5.28;;;;;;;4.96;67.59;101695.53;4995690;28;20034;-70
2023/12/19 01:45:52;;;;;;;8.02;4.97;;;;;;;4.90;67.20;101698.50;4994467;28;20070;-70
2023/12/19 01:48:19;;;;;;;8.15;4.68;;;;;;;5.16;66.59;101712.50;4994211;28;20201;-70
2023/12/19 01:50:47;;;;;;;10.02;4.60;;;;;;;4.97;66.85;101699.09;4994014;28;20035;-70
2023/12/19 01:53:15;;;;;;;9.35;4.70;;;;;;;5.08;66.56;101696.72;4994856;28;20038;-71
2023/12/19 01:55:41;;;;;;;11.00;4.82;;;;;;;4.98;66.99;101695.44;4994352;28;20046;-70
2023/12/19 01:58:09;;;;;;;8.35;3.78;;;;;;;5.19;66.65;101697.06;4994735;28;20082;-70
2023/12/19 02:00:37;;;;;;;7.93;4.53;;;;;;;5.29;65.83;101684.00;4995194;28;20057;-69
2023/12/19 02:03:05;;;;;;;8.68;4.93;;;;;;;5.29;65.92;101682.19;4994588;28;20050;-70
2023/12/19 02:09:18;;;;;;;8.75;4.95;;;;;;;5.25;66.16;101658.22;4994130;28;20046;-70
2023/12/19 02:11:45;;;;;;;7.30;4.75;;;;;;;5.24;66.35;101657.34;4995101;28;20074;-70
2023/12/19 02:14:12;;;;;;;8.85;4.88;;;;;;;5.15;66.55;101655.13;4993646;28;20066;-70
2023/12/19 02:16:38;;;;;;;10.23;4.70;;;;;;;5.31;66.35;101665.09;4995134;28;20035;-70
2023/12/19 02:19:06;;;;;;;10.00;5.28;;;;;;;5.27;66.48;101676.03;4994973;28;20051;-70
2023/12/19 02:21:34;;;;;;;7.72;4.47;;;;;;;5.32;66.54;101664.13;4994479;28;20039;-70
2023/12/19 02:24:02;;;;;;;10.45;5.25;;;;;;;5.26;67.13;101660.84;4994818;28;20046;-71
2023/12/19 02:26:28;;;;;;;11.20;5.22;;;;;;;5.29;67.10;101667.88;4978289;28;20038;-70
2023/12/19 02:28:56;;;;;;;7.32;4.72;;;;;;;5.35;67.10;101651.44;4977705;28;20095;-70
2023/12/19 02:31:22;;;;;;;6.55;4.32;;;;;;;5.35;66.78;101626.34;4994794;28;20047;-70
2023/12/19 02:33:49;;;;;;;9.80;5.03;;;;;;;5.14;67.84;101634.56;4954933;28;20040;-70
2023/12/19 02:36:19;;;;;;;9.80;5.13;;;;;;;5.28;67.82;101629.34;4974841;28;20043;-70
2023/12/19 02:38:46;;;;;;;7.72;4.82;;;;;;;5.42;67.15;101635.81;4974243;28;20035;-70
2023/12/19 02:41:12;;;;;;;7.97;5.03;;;;;;;5.27;68.23;101624.91;4975279;28;20031;-70
2023/12/19 02:43:40;;;;;;;8.93;4.80;;;;;;;5.25;68.66;101618.75;4974167;28;20042;-70
2023/12/19 02:46:21;;;;;;;9.13;5.13;;;;;;;5.43;68.11;101616.06;4974377;28;20047;-70
2023/12/19 02:48:48;;;;;;;9.18;5.45;;;;;;;5.32;68.67;101603.13;4974446;28;20043;-70
2023/12/19 02:51:18;;;;;;;7.38;4.55;;;;;;;5.32;68.61;101595.06;4960123;29;20078;-70
2023/12/19 02:53:44;;;;;;;10.20;4.93;;;;;;;5.47;68.29;101585.34;4981901;28;20058;-70
2023/12/19 02:56:13;;;;;;;15.15;5.68;;;;;;;5.29;69.57;101597.94;4995274;28;20099;-70
2023/12/19 02:58:40;;;;;;;6.65;4.47;;;;;;;5.42;69.15;101608.91;4995768;28;20086;-70
2023/12/19 03:01:07;;;;;;;8.45;5.53;;;;;;;5.29;69.92;101609.56;4994802;28;20030;-70
2023/12/19 03:03:34;;;;;;;11.55;5.65;;;;;;;5.35;69.78;101602.13;4994638;28;20043;-70
2023/12/19 03:06:01;;;;;;;8.55;5.43;;;;;;;5.41;70.03;101585.66;4993591;28;20069;-70
2023/12/19 03:08:28;;;;;;;9.02;5.78;;;;;;;5.37;70.07;101584.09;4997545;28;20031;-70
2023/12/19 03:10:54;;;;;;;9.25;5.63;;;;;;;5.49;70.21;101602.25;4998099;28;20094;-70
2023/12/19 03:13:21;;;;;;;9.80;5.57;;;;;;;5.54;70.09;101594.81;4997137;28;20034;-70
2023/12/19 03:15:47;;;;;;;9.32;5.72;;;;;;;5.47;70.62;101591.59;4997387;28;20031;-70
2023/12/19 03:18:14;;;;;;;9.50;5.95;;;;;;;5.55;71.04;101596.56;4998257;28;20107;-70
2023/12/19 03:20:41;;;;;;;11.35;5.82;;;;;;;5.52;71.32;101583.28;4998739;28;20045;-71
2023/12/19 03:23:08;;;;;;;12.80;6.22;;;;;;;5.62;71.43;101584.53;4998052;28;20031;-70
2023/12/19 03:25:34;;;;;;;8.05;5.70;;;;;;;5.53;71.62;101568.88;4997793;28;20039;-70
2023/12/19 03:28:01;;;;;;;11.90;7.28;;;;;;;5.64;72.11;101566.47;4997434;28;20039;-70
2023/12/19 03:30:31;;;;;;;12.77;7.45;;;;;;;5.45;72.83;101563.03;4998349;28;20051;-70
2023/12/19 03:32:57;;;;;;;13.25;7.30;;;;;;;5.61;72.88;101565.75;4996791;28;20101;-70
2023/12/19 03:35:24;;;;;;;11.15;7.05;;;;;;;5.53;73.19;101564.34;4998337;28;20046;-70
2023/12/19 03:37:51;;;;;;;10.45;7.05;;;;;;;5.64;72.74;101562.91;4998479;28;20051;-70
2023/12/19 03:40:18;;;;;;;10.77;7.22;;;;;;;5.71;72.81;101553.56;4997801;28;20074;-69
2023/12/19 03:42:44;;;;;;;13.43;7.32;;;;;;;5.74;73.04;101559.63;4998659;28;20050;-70
2023/12/19 03:45:12;;;;;;;13.75;7.43;;;;;;;5.72;73.33;101564.22;4997915;28;20027;-70
2023/12/19 03:47:39;;;;;;;11.48;7.82;;;;;;;5.61;74.15;101577.41;4997801;28;20050;-70
2023/12/19 03:50:07;;;;;;;13.77;7.82;;;;;;;5.79;73.44;101572.81;4996762;28;20055;-70
2023/12/19 03:52:34;;;;;;;11.90;7.85;;;;;;;5.63;74.21;101578.19;4998063;28;20042;-70
2023/12/19 03:55:01;;;;;;;12.60;7.65;;;;;;;5.70;74.20;101576.00;4997257;28;20070;-70
2023/12/19 03:57:27;;;;;;;13.43;7.60;;;;;;;5.73;74.35;101574.03;4996843;28;20066;-70
2023/12/19 03:59:54;;;;;;;12.93;8.07;;;;;;;5.60;75.02;101569.38;4995810;28;20085;-70
2023/12/19 04:02:21;;;;;;;13.82;7.65;;;;;;;5.65;75.08;101565.50;4996798;28;20034;-70
2023/12/19 04:04:48;;;;;;;13.00;7.85;;;;;;;5.69;74.91;101559.00;4997569;28;20085;-70
2023/12/19 04:07:14;;;;;;;14.80;7.60;;;;;;;5.72;74.86;101558.84;4997120;28;20027;-70
2023/12/19 04:09:41;;;;;;;14.68;8.55;;;;;;;5.58;75.82;101558.72;4997516;28;20046;-70
2023/12/19 04:12:09;;;;;;;13.57;8.70;;;;;;;5.69;75.63;101559.00;4996938;28;20041;-71
2023/12/19 04:14:36;;;;;;;15.40;7.75;;;;;;;5.79;75.18;101560.25;4996395;28;20062;-70
2023/12/19 04:17:03;;;;;;;16.35;8.07;;;;;;;5.98;74.54;101564.59;4996194;28;20061;-70
2023/12/19 04:19:29;;;;;;;12.35;7.85;;;;;;;5.91;75.02;101563.22;4996950;28;20034;-70
2023/12/19 04:21:57;;;;;;;13.38;7.63;;;;;;;5.91;74.63;101560.53;4996429;28;20054;-70
2023/12/19 04:24:26;;;;;;;11.80;7.40;;;;;;;5.85;74.57;101565.28;4996821;28;20038;-70
2023/12/19 04:26:53;;;;;;;11.93;7.78;;;;;;;5.83;75.15;101571.72;4996693;28;20062;-70
2023/12/19 04:29:20;;;;;;;13.10;7.63;;;;;;;5.74;75.28;101556.94;4981166;28;20031;-70
2023/12/19 04:31:47;;;;;;;12.23;8.05;;;;;;;5.74;75.44;101556.94;4997490;28;20074;-70
2023/12/19 04:34:14;;;;;;;13.63;7.78;;;;;;;5.84;75.03;101558.16;4997602;28;20055;-70
2023/12/19 04:36:42;;;;;;;11.43;7.35;;;;;;;5.78;75.32;101555.78;4997485;28;20042;-70
2023/12/19 04:39:08;;;;;;;15.38;7.63;;;;;;;5.83;75.14;101553.75;4996621;28;20041;-70
2023/12/19 04:41:37;;;;;;;12.98;8.02;;;;;;;5.82;75.13;101554.69;4997175;28;20031;-70
2023/12/19 04:44:05;;;;;;;12.90;7.90;;;;;;;6.01;74.34;101556.38;4980459;28;20066;-70
2023/12/19 04:46:31;;;;;;;11.82;7.47;;;;;;;5.90;74.37;101545.34;4997225;28;20038;-70
2023/12/19 04:48:59;;;;;;;13.32;7.97;;;;;;;5.76;75.23;101546.94;4995510;28;20035;-70
2023/12/19 04:51:25;;;;;;;10.55;7.22;;;;;;;5.74;75.09;101556.06;4979219;28;20033;-70
2023/12/19 04:53:53;;;;;;;13.30;7.10;;;;;;;5.91;74.66;101558.72;4986805;28;20042;-70
2023/12/19 04:56:20;;;;;;;13.00;8.15;;;;;;;5.83;74.73;101561.81;4976812;28;20027;-70
2023/12/19 04:58:46;;;;;;;15.50;8.40;;;;;;;5.98;74.39;101543.06;4976617;28;20035;-70
2023/12/19 05:01:13;;;;;;;13.23;8.18;;;;;;;5.85;74.34;101527.59;4976583;28;20027;-70
2023/12/19 05:03:41;;;;;;;18.15;8.95;;;;;;;5.68;75.94;101524.97;4976142;28;20035;-70
2023/12/19 05:06:17;;;;;;;16.30;9.02;;;;;;;5.65;75.85;101522.44;4958330;28;20039;-70
2023/12/19 05:08:45;;;;;;;12.20;7.75;;;;;;;5.91;74.83;101530.91;4976799;28;20039;-70
2023/12/19 05:11:12;;;;;;;14.10;7.95;;;;;;;5.95;75.02;101517.16;4975868;28;20047;-70
2023/12/19 05:13:39;;;;;;;12.23;7.57;;;;;;;5.70;75.47;101523.06;4975874;28;20055;-70
2023/12/19 05:16:14;;;;;;;12.90;8.55;;;;;;;5.84;75.33;101520.47;4976197;28;20050;-70
2023/12/19 05:18:42;;;;;;;10.73;7.32;;;;;;;5.85;75.21;101516.81;4976606;28;20035;-70
2023/12/19 05:21:09;;;;;;;11.55;7.43;;;;;;;5.78;76.16;101511.84;4976316;28;20023;-71
2023/12/19 05:23:37;;;;;;;11.52;7.68;;;;;;;5.92;75.33;101524.56;4976374;28;20047;-71
2023/12/19 05:26:05;;;;;;;18.27;8.55;;;;;;;5.94;75.14;101526.22;4976653;28;20043;-71
2023/12/19 05:28:34;;;;;;;12.73;7.80;;;;;;;5.98;74.76;101529.59;4975877;28;20075;-70
2023/12/19 05:31:00;;;;;;;10.43;6.93;;;;;;;6.06;74.96;101532.72;4976119;28;20091;-70
2023/12/19 05:33:28;;;;;;;11.70;7.35;;;;;;;5.69;75.10;101529.38;4976198;28;20027;-70
2023/12/19 05:35:55;;;;;;;11.23;7.03;;;;;;;5.55;74.92;101523.91;4976388;28;20038;-70
2023/12/19 05:38:22;;;;;;;11.50;6.65;;;;;;;5.44;74.86;101521.81;4976074;28;20035;-70
2023/12/19 05:40:51;;;;;;;14.45;7.00;;;;;;;5.56;75.24;101528.34;4976058;28;20035;-70
2023/12/19 05:43:18;;;;;;;12.88;6.53;;;;;;;5.43;74.82;101528.13;4974568;28;20035;-70
2023/12/19 05:45:44;;;;;;;10.88;6.95;;;;;;;5.44;74.79;101515.56;4975513;28;20047;-71
2023/12/19 05:48:11;;;;;;;9.80;5.72;;;;;;;5.36;74.80;101507.03;4975228;28;20058;-71
2023/12/19 05:50:37;;;;;;;11.80;6.20;;;;;;;5.28;74.99;101499.34;4975623;28;20051;-70
2023/12/19 05:53:04;;;;;;;9.10;6.00;;;;;;;5.28;74.50;101515.50;4977326;28;20051;-70
2023/12/19 05:55:31;;;;;;;10.73;6.35;;;;;;;5.28;74.15;101499.34;4993894;28;20047;-70
2023/12/19 05:57:58;;;;;;;9.25;5.80;;;;;;;5.34;74.03;101499.03;4994027;28;20043;-70
2023/12/19 06:00:24;;;;;;;10.45;5.45;;;;;;;5.25;72.99;101486.09;4994147;28;20058;-70
2023/12/19 06:02:52;;;;;;;9.13;5.97;;;;;;;5.24;73.55;101487.03;4995071;28;20118;-69
2023/12/19 06:05:19;;;;;;;9.18;5.50;;;;;;;5.46;72.83;101484.91;4995430;28;20057;-70
2023/12/19 06:07:46;;;;;;;10.35;5.65;;;;;;;5.60;72.41;101491.34;4995377;28;20051;-70
2023/12/19 06:10:14;;;;;;;7.95;5.28;;;;;;;5.68;71.40;101500.72;4994907;28;20047;-70
2023/12/19 06:12:41;;;;;;;11.02;5.53;;;;;;;5.66;71.96;101526.00;4994850;28;20043;-70
2023/12/19 06:15:13;;;;;;;10.20;5.70;;;;;;;5.64;71.53;101523.41;4995081;28;20049;-70
2023/12/19 06:17:43;;;;;;;10.40;4.95;;;;;;;5.79;70.99;101517.19;4993765;28;20041;-70
2023/12/19 06:20:10;;;;;;;13.32;5.43;;;;;;;5.88;70.45;101507.69;4994631;28;20038;-70
2023/12/19 06:22:37;;;;;;;9.77;5.70;;;;;;;5.88;70.80;101494.22;4995206;28;20047;-70
2023/12/19 06:25:05;;;;;;;11.10;5.78;;;;;;;5.80;70.44;101481.22;4994665;28;20043;-70
2023/12/19 06:27:35;;;;;;;12.23;6.45;;;;;;;5.67;71.41;101482.84;4995021;28;20058;-70
2023/12/19 06:30:04;;;;;;;14.95;6.63;;;;;;;5.74;71.10;101483.38;4995194;28;20038;-70
2023/12/19 06:32:47;;;;;;;10.57;6.18;;;;;;;5.71;70.80;101468.28;4980390;28;20039;-71
2023/12/19 06:35:14;;;;;;;12.02;5.85;;;;;;;5.63;71.55;101459.78;4995447;28;20066;-70
2023/12/19 06:37:40;;;;;;;10.73;5.22;;;;;;;5.54;71.20;101441.44;4995442;28;20058;-70
2023/12/19 06:40:07;;;;;;;11.98;5.85;;;;;;;5.35;71.84;101429.97;4995031;28;20078;-70
2023/12/19 06:42:34;;;;;;;10.23;5.57;;;;;;;5.34;72.08;101430.91;4997271;28;20066;-70
2023/12/19 06:45:01;;;;;;;10.80;5.75;;;;;;;5.32;72.34;101425.59;4999342;28;20035;-70
2023/12/19 06:47:28;;;;;;;11.65;6.55;;;;;;;5.30;72.37;101408.69;4998614;28;20066;-70
2023/12/19 06:49:55;;;;;;;11.23;6.50;;;;;;;5.27;72.86;101416.94;4997805;28;20070;-70
2023/12/19 06:52:22;;;;;;;11.68;6.05;;;;;;;5.32;72.56;101420.22;4996697;28;20030;-70
2023/12/19 06:54:48;;;;;;;11.77;6.53;;;;;;;5.44;72.32;101429.47;4982430;28;20035;-70
2023/12/19 06:57:15;;;;;;;14.15;6.88;;;;;;;5.49;72.44;101416.59;4980111;28;20031;-70
2023/12/19 06:59:42;;;;;;;11.88;6.45;;;;;;;5.52;72.40;101421.84;4978596;28;20039;-71
2023/12/19 07:02:08;;;;;;;11.63;7.15;;;;;;;5.52;72.25;101419.13;4978407;28;20033;-71
2023/12/19 07:04:35;;;;;;;15.68;6.53;;;;;;;5.64;72.65;101415.75;4979708;28;20031;-71
2023/12/19 07:07:02;;;;;;;12.75;6.75;;;;;;;5.72;72.17;101408.13;4979570;28;20062;-70
2023/12/19 07:09:29;;;;;;;22.77;7.80;;;;;;;5.78;72.07;101413.13;4978938;28;20030;-70
2023/12/19 07:11:57;;;;;;;12.10;7.85;;;;;;;5.63;73.13;101411.31;4962253;28;20043;-70
2023/12/19 07:14:24;;;;;;;12.32;7.20;;;;;;;5.72;72.90;101423.41;4979488;28;20031;-71
2023/12/19 07:16:50;;;;;;;14.45;6.70;;;;;;;5.81;72.99;101431.81;4979540;28;20042;-71
2023/12/19 07:19:17;;;;;;;19.40;7.85;;;;;;;5.96;72.26;101442.66;4979227;28;20043;-70
2023/12/19 07:21:44;;;;;;;10.13;6.63;;;;;;;5.94;72.37;101452.63;4978526;28;20046;-70
2023/12/19 07:24:11;;;;;;;16.80;7.30;;;;;;;5.97;72.57;101453.31;4979381;28;20038;-71
2023/12/19 07:26:37;;;;;;;11.18;7.05;;;;;;;6.00;72.63;101449.59;4960790;28;20490;-70
2023/12/19 07:29:08;;;;;;;10.57;7.00;;;;;;;5.94;73.29;101449.94;4962052;28;20043;-70
2023/12/19 07:31:35;;;;;;;13.48;6.45;;;;;;;6.01;72.65;101454.03;4978196;28;20042;-70
2023/12/19 07:34:04;;;;;;;12.98;6.80;;;;;;;5.97;72.76;101444.38;4977763;28;20127;-70
2023/12/19 07:36:32;;;;;;;13.77;6.82;;;;;;;5.91;73.01;101444.75;4978170;28;20067;-70
2023/12/19 07:38:59;;;;;;;19.30;7.05;;;;;;;6.05;72.61;101436.72;4977761;28;20039;-71
2023/12/19 07:41:31;;;;;;;11.00;7.15;;;;;;;6.00;72.59;101434.31;4976984;28;20083;-70
2023/12/19 07:43:58;;;;;;;12.57;6.65;;;;;;;5.87;73.44;101438.66;4977085;28;20103;-71
2023/12/19 07:46:26;;;;;;;16.85;6.90;;;;;;;5.90;73.71;101429.56;4978031;28;20027;-71
2023/12/19 07:48:53;;;;;;;15.75;8.13;;;;;;;5.67;74.70;101431.72;4976566;28;20039;-70
2023/12/19 07:51:24;;;;;;;12.45;7.28;;;;;;;5.59;75.31;101433.97;4976443;28;20058;-71
2023/12/19 07:53:51;;;;;;;15.02;6.75;;;;;;;5.74;75.62;101435.81;4985915;28;20063;-71
2023/12/19 07:56:18;;;;;;;13.88;7.22;;;;;;;5.72;76.54;101443.09;4981084;28;20062;-70
2023/12/19 07:58:45;;;;;;;14.07;7.43;;;;;;;5.69;77.38;101440.56;4997505;28;20034;-71
2023/12/19 08:01:12;;;;;;;15.50;8.07;;;;;;;5.93;76.16;101437.44;4995620;28;20090;-71
2023/12/19 08:03:41;;;;;;;11.85;7.60;;;;;;;5.68;77.03;101444.22;4995232;28;20053;-72
2023/12/19 08:06:08;;;;;;;12.73;7.50;;;;;;;5.50;77.70;101439.84;4996081;28;20035;-71
2023/12/19 08:08:34;;;;;;;17.30;7.75;;;;;;;5.47;78.76;101438.22;4996328;28;20070;-70
2023/12/19 08:11:01;;;;;;;13.82;7.60;;;;;;;5.78;77.61;101447.25;4996928;28;20095;-70
2023/12/19 08:13:27;;;;;;;18.83;7.78;;;;;;;5.94;76.99;101447.25;4996973;28;20046;-70
2023/12/19 08:16:05;;;;;;;14.88;6.95;;;;;;;5.89;76.42;101433.19;5156743;23;20059;-70
2023/12/19 08:18:32;;;;;;;13.15;7.43;;;;;;;5.84;76.68;101422.69;4977174;28;20070;-70
2023/12/19 08:21:01;;;;;;;14.30;6.90;;;;;;;5.65;76.13;101422.88;4977085;28;20114;-70
2023/12/19 08:23:28;;;;;;;12.30;6.68;;;;;;;5.61;76.40;101406.97;4977288;28;20054;-70
2023/12/19 08:25:54;;;;;;;12.10;7.25;;;;;;;5.73;75.22;101409.84;4977473;28;20078;-70
2023/12/19 08:28:21;;;;;;;16.10;6.82;;;;;;;5.43;77.22;101407.06;4976114;28;20035;-70
2023/12/19 08:30:49;;;;;;;13.30;7.50;;;;;;;5.43;77.67;101392.75;4976200;28;20097;-70
2023/12/19 08:33:16;;;;;;;13.77;7.40;;;;;;;5.37;77.74;101385.00;4976886;28;20046;-73
2023/12/19 08:35:44;;;;;;;12.88;7.90;;;;;;;5.52;78.35;101381.47;4976170;28;20090;-71
2023/12/19 08:38:11;;;;;;;17.02;9.13;;;;;;;5.25;81.93;101378.50;4975994;28;20031;-71
2023/12/19 08:40:38;;;;;;;16.90;9.60;;;;;;;5.00;84.47;101382.53;4976022;28;21409;-70
2023/12/19 08:43:04;;;;;;;21.10;10.35;;;;;;;5.09;84.42;101377.59;4976568;28;20123;-69
2023/12/19 08:45:31;;;;;;;29.70;11.02;;;;;;;5.00;84.40;101371.78;4977120;28;20047;-70
2023/12/19 08:47:58;;;;;;;17.88;9.95;;;;;;;5.14;83.05;101371.03;4976051;28;20099;-70
2023/12/19 08:50:25;;;;;;;17.50;10.02;;;;;;;5.24;81.94;101374.94;4963671;28;20094;-70
2023/12/19 08:52:53;;;;;;;18.25;9.65;;;;;;;5.33;81.43;101369.97;4956635;28;20079;-70
2023/12/19 08:55:20;;;;;;;17.60;9.35;;;;;;;5.15;81.03;101364.69;4958081;28;20047;-70
2023/12/19 08:57:47;;;;;;;20.90;9.75;;;;;;;5.14;81.42;101357.59;4958171;28;20035;-71
2023/12/19 09:00:19;;;;;;;17.90;9.55;;;;;;;5.40;79.99;101357.94;4957889;28;20043;-70
2023/12/19 09:02:47;;;;;;;18.35;8.60;;;;;;;5.44;78.77;101348.75;4958046;28;20066;-70
2023/12/19 09:05:16;;;;;;;13.23;8.15;;;;;;;5.50;77.93;101345.69;4956990;29;20054;-70
2023/12/19 09:07:44;;;;;;;15.88;8.90;;;;;;;5.35;77.74;101347.44;4957660;28;20051;-71
2023/12/19 09:10:11;;;;;;;14.35;8.10;;;;;;;5.47;76.95;101348.56;4956233;29;20051;-70
2023/12/19 09:12:39;;;;;;;15.90;8.25;;;;;;;5.34;77.24;101347.53;4956244;28;20056;-71
2023/12/19 09:15:08;;;;;;;17.23;8.88;;;;;;;5.33;77.42;101353.84;4955575;28;20046;-70
2023/12/19 09:17:34;;;;;;;17.58;9.00;;;;;;;5.46;76.72;101341.44;4955952;28;20032;-71
2023/12/19 09:20:05;;;;;;;13.80;8.27;;;;;;;5.65;75.06;101336.75;4957088;29;20039;-70
2023/12/19 09:22:32;;;;;;;18.85;8.02;;;;;;;5.50;75.46;101334.91;4955148;28;20051;-71
2023/12/19 09:25:00;;;;;;;13.07;8.25;;;;;;;5.47;75.38;101329.72;4956466;29;20047;-71
2023/12/19 09:27:27;;;;;;;16.35;8.25;;;;;;;5.66;75.00;101333.09;4956309;29;20067;-71
2023/12/19 09:29:54;;;;;;;13.68;8.35;;;;;;;5.72;74.64;101327.34;4955787;29;20035;-70
2023/12/19 09:32:21;;;;;;;13.82;8.05;;;;;;;5.63;75.30;101321.66;4955941;29;20052;-71
2023/12/19 09:34:49;;;;;;;13.77;8.05;;;;;;;5.65;74.87;101311.66;4956633;29;20031;-70
2023/12/19 09:37:17;;;;;;;13.35;7.82;;;;;;;5.71;74.94;101312.16;4956414;29;20055;-70
2023/12/19 09:39:47;;;;;;;14.15;8.68;;;;;;;5.66;75.96;101311.56;4955843;29;20067;-70
2023/12/19 09:42:17;;;;;;;15.75;9.88;;;;;;;5.70;76.54;101307.75;4955560;29;20076;-71
2023/12/19 09:44:45;;;;;;;14.20;9.00;;;;;;;5.69;78.05;101315.88;4956905;29;20076;-71
2023/12/19 09:47:20;;;;;;;16.25;9.85;;;;;;;5.66;79.20;101316.94;4955943;29;20045;-71
2023/12/19 09:49:53;;;;;;;17.52;9.57;;;;;;;5.56;80.52;101310.34;4955445;29;20043;-70
2023/12/19 09:52:22;;;;;;;16.27;9.18;;;;;;;5.37;82.30;101312.38;4956984;28;20043;-70
2023/12/19 09:54:50;;;;;;;17.40;10.70;;;;;;;5.20;83.74;101298.06;4954064;28;20099;-70
2023/12/19 09:57:18;;;;;;;21.88;10.90;;;;;;;5.23;84.23;101286.25;4953673;29;20048;-70
2023/12/19 09:59:47;;;;;;;22.77;11.25;;;;;;;5.15;84.72;101284.03;4952113;29;20099;-71
2023/12/19 10:02:24;;;;;;;20.70;10.18;;;;;;;5.14;84.69;101274.22;4952602;29;20035;-71
2023/12/19 10:04:51;;;;;;;17.90;11.10;;;;;;;5.08;85.02;101269.19;4952980;29;20052;-72
2023/12/19 10:07:18;;;;;;;23.25;12.02;;;;;;;5.25;84.07;101262.84;4953824;29;20119;-70
2023/12/19 10:09:54;;;;;;;24.30;11.80;;;;;;;5.20;84.47;101263.09;4953553;29;20048;-71
2023/12/19 10:12:25;;;;;;;18.02;12.10;;;;;;;5.18;84.55;101254.25;4952730;29;20127;-71
2023/12/19 10:14:51;;;;;;;22.17;12.98;;;;;;;5.17;84.89;101244.47;4952373;29;20058;-71
2023/12/19 10:17:18;;;;;;;21.55;12.40;;;;;;;5.17;84.56;101232.84;4954371;29;20051;-69
2023/12/19 10:19:45;;;;;;;18.58;12.15;;;;;;;5.08;85.20;101231.53;4957440;29;20050;-71
2023/12/19 10:22:16;;;;;;;20.65;12.43;;;;;;;5.29;84.33;101219.53;4957415;29;20078;-71
2023/12/19 10:24:43;;;;;;;19.58;11.57;;;;;;;5.36;84.15;101228.13;4958201;29;20058;-71
2023/12/19 10:27:10;;;;;;;17.92;12.18;;;;;;;5.36;84.43;101221.88;4956012;29;20035;-71
2023/12/19 10:29:37;;;;;;;19.00;11.75;;;;;;;5.20;86.04;101214.69;4956318;29;20062;-72
2023/12/19 10:32:16;;;;;;;20.77;12.48;;;;;;;5.37;84.99;101210.16;4954125;29;20036;-72
2023/12/19 10:34:44;;;;;;;19.38;11.70;;;;;;;5.41;84.92;101200.94;4956066;29;20122;-72
2023/12/19 10:37:17;;;;;;;19.08;12.55;;;;;;;5.16;86.98;101197.00;4954827;29;20058;-72
2023/12/19 10:39:44;;;;;;;22.25;13.13;;;;;;;5.25;87.01;101187.53;4954927;29;20095;-72
2023/12/19 10:42:11;;;;;;;20.10;12.57;;;;;;;5.14;86.53;101169.34;4954589;29;20058;-72
2023/12/19 10:44:42;;;;;;;26.13;13.10;;;;;;;5.03;88.10;101161.00;4953795;29;20051;-72
2023/12/19 10:47:10;;;;;;;24.50;12.38;;;;;;;4.94;88.60;101156.19;4954209;29;20084;-72
2023/12/19 10:49:38;;;;;;;22.30;13.15;;;;;;;4.72;89.43;101167.25;4954755;29;20048;-72
2023/12/19 10:52:08;;;;;;;26.95;15.20;;;;;;;4.93;89.09;101160.69;4954910;29;20048;-72
2023/12/19 10:54:36;;;;;;;24.77;14.02;;;;;;;5.00;88.50;101155.81;4940588;29;20059;-72
2023/12/19 10:57:08;;;;;;;23.38;14.25;;;;;;;5.16;88.40;101151.28;4934962;29;20056;-72
2023/12/19 10:59:57;;;;;;;26.60;14.40;;;;;;;4.95;89.46;101131.03;4934181;29;20051;-73
2023/12/19 11:02:45;;;;;;;25.77;14.90;;;;;;;4.95;89.76;101131.88;4933642;29;20100;-71
2023/12/19 11:05:39;;;;;;;23.20;14.27;;;;;;;5.09;89.31;101135.59;4934600;29;20056;-72
2023/12/19 11:08:17;;;;;;;25.67;14.50;;;;;;;5.20;88.76;101135.84;4933785;29;20111;-72
2023/12/19 11:10:52;;;;;;;29.80;14.70;;;;;;;5.22;88.99;101134.78;4933476;29;20041;-72
2023/12/19 11:13:19;;;;;;;22.40;14.20;;;;;;;5.37;88.20;101129.47;4932205;29;20044;-71
2023/12/19 11:15:52;;;;;;;23.77;14.25;;;;;;;5.26;88.23;101117.53;4932074;29;20052;-72
2023/12/19 11:18:42;;;;;;;27.50;13.98;;;;;;;5.46;87.55;101126.22;4933924;29;20107;-71
2023/12/19 11:21:17;;;;;;;25.13;14.50;;;;;;;5.16;89.45;101119.03;4933138;29;20060;-72
2023/12/19 11:24:00;;;;;;;22.05;13.75;;;;;;;5.23;89.47;101111.44;4932893;29;20055;-73
2023/12/19 11:26:35;;;;;;;23.05;13.88;;;;;;;5.18;89.46;101106.34;4934577;29;20044;-72
2023/12/19 11:29:01;;;;;;;27.02;14.50;;;;;;;5.23;89.35;101101.53;4932939;29;20048;-73
2023/12/19 11:31:33;;;;;;;23.90;14.75;;;;;;;5.31;89.54;101105.59;4933672;29;20119;-72
2023/12/19 11:34:23;;;;;;;24.23;14.25;;;;;;;5.33;89.44;101092.91;4933581;29;20052;-73